Time;durP1;ratioP1;P1;durP2;ratioP2;P2;SDS_P1;SDS_P2;PMS_P1;PMS_P2;Temp;Humidity;BMP_temperature;BMP_pressure;BME280_temperature;BME280_humidity;BME280_pressure;Samples;Min_cycle;Max_cycle;Signal;HPM_P1;HPM_P2
2023/05/24 00:02:08;;;;;;;16.52;8.65;;;18.80;88.80;;;;;;6247256;23;20008;-78
2023/05/24 00:04:34;;;;;;;12.70;9.07;;;18.80;88.80;;;;;;6244549;23;20123;-78
2023/05/24 00:07:02;;;;;;;12.88;9.07;;;18.90;89.10;;;;;;6244451;23;20311;-79
2023/05/24 00:09:29;;;;;;;15.13;9.60;;;18.80;89.00;;;;;;6217422;23;20034;-78
2023/05/24 00:11:55;;;;;;;23.25;9.82;;;18.80;89.10;;;;;;6244165;23;20003;-79
2023/05/24 00:14:21;;;;;;;15.55;9.90;;;18.80;89.60;;;;;;6244609;23;20000;-78
2023/05/24 00:16:47;;;;;;;15.85;9.40;;;18.80;89.60;;;;;;6244216;23;20442;-78
2023/05/24 00:19:17;;;;;;;13.73;9.55;;;18.80;89.90;;;;;;6244290;23;19996;-78
2023/05/24 00:21:44;;;;;;;11.02;9.02;;;18.80;89.80;;;;;;6244201;23;20066;-78
2023/05/24 00:24:10;;;;;;;14.52;8.80;;;18.80;89.80;;;;;;6243873;23;20383;-78
2023/05/24 00:26:36;;;;;;;11.73;8.52;;;18.80;90.00;;;;;;6244086;23;20023;-79
2023/05/24 00:29:02;;;;;;;12.57;7.93;;;18.80;90.00;;;;;;6244117;23;20000;-79
2023/05/24 00:31:28;;;;;;;13.55;8.15;;;18.80;90.00;;;;;;6244031;23;20006;-79
2023/05/24 00:33:53;;;;;;;10.93;8.20;;;18.80;90.00;;;;;;6245654;23;20069;-77
2023/05/24 00:36:20;;;;;;;14.65;8.05;;;18.80;90.00;;;;;;6245434;23;20008;-78
2023/05/24 00:38:45;;;;;;;10.82;7.97;;;18.70;89.90;;;;;;6244852;23;20077;-78
2023/05/24 00:41:11;;;;;;;12.70;8.02;;;18.80;89.90;;;;;;6244087;23;20007;-79
2023/05/24 00:43:37;;;;;;;9.55;7.40;;;18.80;89.90;;;;;;6243745;23;20391;-78
2023/05/24 00:46:16;;;;;;;12.60;7.35;;;18.80;89.80;;;;;;6243967;23;20094;-77
2023/05/24 00:48:43;;;;;;;12.50;8.02;;;18.80;90.00;;;;;;6244271;23;20054;-79
2023/05/24 00:51:10;;;;;;;15.43;8.20;;;18.80;89.50;;;;;;6243981;23;20468;-77
2023/05/24 00:53:37;;;;;;;16.35;8.40;;;18.80;89.70;;;;;;6244048;23;19996;-78
2023/05/24 00:56:03;;;;;;;10.65;8.20;;;18.80;89.50;;;;;;6244359;23;20012;-79
2023/05/24 00:58:30;;;;;;;14.93;8.35;;;18.80;89.70;;;;;;6245372;23;19996;-78
2023/05/24 01:01:00;;;;;;;16.70;8.80;;;18.80;89.50;;;;;;6244447;23;20020;-79
2023/05/24 01:03:30;;;;;;;17.23;8.93;;;18.70;89.40;;;;;;6244530;23;20012;-78
2023/05/24 01:06:01;;;;;;;14.82;8.80;;;18.60;89.50;;;;;;6245371;23;20012;-77
2023/05/24 01:08:33;;;;;;;14.80;8.75;;;18.70;89.80;;;;;;6246255;23;20114;-78
2023/05/24 01:11:08;;;;;;;14.35;9.15;;;18.70;89.70;;;;;;6264150;23;20027;-77
2023/05/24 01:13:56;;;;;;;11.95;9.05;;;18.60;89.60;;;;;;6225396;23;20061;-78
2023/05/24 01:16:30;;;;;;;14.32;8.75;;;18.70;90.00;;;;;;6246480;23;20012;-78
2023/05/24 01:19:05;;;;;;;13.55;8.45;;;18.60;89.60;;;;;;6243875;23;19996;-79
2023/05/24 01:21:58;;;;;;;14.98;9.38;;;18.60;89.50;;;;;;6243998;23;20054;-77
2023/05/24 01:24:39;;;;;;;11.98;8.30;;;18.60;90.00;;;;;;6244254;23;20000;-78
2023/05/24 01:27:06;;;;;;;12.43;8.50;;;18.60;89.50;;;;;;6243759;23;20046;-77
2023/05/24 01:29:33;;;;;;;17.63;8.40;;;18.50;89.60;;;;;;6242356;23;20012;-78
2023/05/24 01:32:00;;;;;;;11.77;8.52;;;18.50;89.80;;;;;;6220679;23;20284;-79
2023/05/24 01:34:26;;;;;;;13.93;8.45;;;18.50;89.90;;;;;;6246186;23;20023;-79
2023/05/24 01:36:52;;;;;;;12.15;8.38;;;18.40;90.10;;;;;;6245193;23;20008;-78
2023/05/24 01:39:19;;;;;;;13.02;7.90;;;18.50;90.10;;;;;;6244106;23;20434;-79
2023/05/24 01:41:57;;;;;;;11.57;8.20;;;18.40;90.00;;;;;;6243934;23;20014;-77
2023/05/24 01:44:59;;;;;;;10.10;6.95;;;18.40;90.10;;;;;;6245672;23;20031;-78
2023/05/24 01:47:25;;;;;;;15.82;7.70;;;18.40;90.20;;;;;;6243995;23;20085;-78
2023/05/24 01:49:56;;;;;;;14.73;7.45;;;18.40;89.90;;;;;;6243901;23;20076;-79
2023/05/24 01:52:26;;;;;;;10.20;7.50;;;18.40;89.70;;;;;;6244199;23;19997;-78
2023/05/24 01:54:54;;;;;;;11.80;7.47;;;18.40;89.80;;;;;;6244756;23;20012;-78
2023/05/24 01:57:22;;;;;;;13.65;8.60;;;18.30;89.80;;;;;;6242292;23;20012;-79
2023/05/24 01:59:49;;;;;;;15.15;7.90;;;18.30;89.90;;;;;;6245283;23;20103;-78
2023/05/24 02:02:15;;;;;;;11.82;7.55;;;18.30;90.10;;;;;;6245363;23;20000;-77
2023/05/24 02:04:41;;;;;;;18.65;8.13;;;18.30;90.00;;;;;;6245804;23;20094;-78
2023/05/24 02:07:07;;;;;;;16.42;8.48;;;18.30;90.00;;;;;;6245480;23;20012;-78
2023/05/24 02:09:32;;;;;;;14.15;8.48;;;18.20;90.00;;;;;;6245900;23;20058;-79
2023/05/24 02:11:58;;;;;;;11.10;7.55;;;18.20;90.10;;;;;;6246003;23;20004;-78
2023/05/24 02:14:25;;;;;;;12.60;8.02;;;18.20;90.10;;;;;;6245595;23;19992;-79
2023/05/24 02:16:51;;;;;;;11.63;7.38;;;18.10;90.10;;;;;;6246614;23;20004;-77
2023/05/24 02:19:16;;;;;;;13.20;8.15;;;18.10;90.10;;;;;;6245279;23;20367;-77
2023/05/24 02:21:42;;;;;;;12.85;7.97;;;18.00;90.10;;;;;;6245734;23;20000;-78
2023/05/24 02:24:11;;;;;;;10.90;7.53;;;18.00;90.20;;;;;;6245627;23;19996;-78
2023/05/24 02:26:37;;;;;;;13.82;7.53;;;18.00;90.30;;;;;;6245526;23;20011;-78
2023/05/24 02:29:04;;;;;;;12.75;8.43;;;17.90;90.30;;;;;;6246076;23;20000;-79
2023/05/24 02:31:29;;;;;;;13.82;7.75;;;17.90;90.30;;;;;;6246853;23;20427;-77
2023/05/24 02:33:56;;;;;;;13.73;8.32;;;17.80;90.30;;;;;;6251594;23;20039;-78
2023/05/24 02:36:23;;;;;;;12.30;8.00;;;17.80;90.40;;;;;;6258786;23;20012;-77
2023/05/24 02:38:51;;;;;;;13.23;8.23;;;17.70;90.50;;;;;;6245590;23;20004;-77
2023/05/24 02:41:18;;;;;;;11.48;7.85;;;17.70;90.60;;;;;;6245402;23;20000;-78
2023/05/24 02:43:44;;;;;;;15.13;8.32;;;17.70;90.60;;;;;;6245383;23;20003;-78
2023/05/24 02:46:10;;;;;;;14.57;8.27;;;17.70;90.70;;;;;;6245493;23;20468;-78
2023/05/24 02:48:36;;;;;;;13.65;7.55;;;17.60;90.70;;;;;;6247626;23;20000;-78
2023/05/24 02:51:02;;;;;;;17.67;7.55;;;17.70;90.90;;;;;;6246111;23;20010;-78
2023/05/24 02:53:31;;;;;;;17.30;8.75;;;17.80;90.70;;;;;;6245518;23;19997;-78
2023/05/24 02:55:58;;;;;;;11.88;8.00;;;17.80;90.70;;;;;;6245109;23;20022;-78
2023/05/24 02:58:24;;;;;;;11.93;8.45;;;17.80;90.60;;;;;;6245275;23;20026;-78
2023/05/24 03:00:50;;;;;;;16.42;9.40;;;17.80;90.60;;;;;;6245617;23;20011;-78
2023/05/24 03:03:15;;;;;;;20.00;8.85;;;17.80;90.70;;;;;;6245838;23;20020;-79
2023/05/24 03:05:41;;;;;;;12.40;8.95;;;17.80;90.70;;;;;;6218288;23;20078;-78
2023/05/24 03:08:07;;;;;;;16.17;8.63;;;17.80;90.70;;;;;;6223181;23;20351;-77
2023/05/24 03:10:33;;;;;;;10.20;8.30;;;17.70;90.70;;;;;;6249334;23;20004;-78
2023/05/24 03:12:59;;;;;;;19.60;8.90;;;17.60;90.90;;;;;;6230199;23;20000;-79
2023/05/24 03:15:24;;;;;;;12.07;8.40;;;17.50;90.90;;;;;;6253197;23;20042;-78
2023/05/24 03:17:50;;;;;;;14.93;8.77;;;17.40;91.10;;;;;;6245949;23;20042;-78
2023/05/24 03:20:16;;;;;;;17.27;8.70;;;17.40;91.10;;;;;;6245412;23;20302;-79
2023/05/24 03:22:42;;;;;;;15.07;9.38;;;17.40;91.20;;;;;;6245461;23;20426;-77
2023/05/24 03:25:08;;;;;;;12.18;8.75;;;17.40;91.20;;;;;;6245470;23;20001;-78
2023/05/24 03:27:37;;;;;;;14.48;8.57;;;17.50;91.30;;;;;;6245212;23;20022;-78
2023/05/24 03:30:05;;;;;;;14.10;8.40;;;17.50;91.40;;;;;;6246314;23;20390;-79
2023/05/24 03:32:31;;;;;;;14.82;8.30;;;17.50;91.30;;;;;;6255112;23;20011;-77
2023/05/24 03:34:59;;;;;;;16.60;9.45;;;17.50;91.20;;;;;;6267724;23;20034;-77
2023/05/24 03:37:25;;;;;;;11.98;8.20;;;17.50;91.20;;;;;;6252685;23;20000;-79
2023/05/24 03:39:51;;;;;;;17.73;8.65;;;17.60;91.30;;;;;;6219738;23;20014;-79
2023/05/24 03:42:17;;;;;;;17.58;9.13;;;17.60;91.10;;;;;;6245394;23;20000;-79
2023/05/24 03:44:42;;;;;;;16.52;8.68;;;17.50;91.00;;;;;;6244734;23;20422;-78
2023/05/24 03:47:08;;;;;;;17.70;8.82;;;17.50;91.10;;;;;;6244759;23;20004;-78
2023/05/24 03:49:34;;;;;;;12.95;7.97;;;17.50;91.00;;;;;;6244931;23;19996;-78
2023/05/24 03:52:00;;;;;;;12.95;8.65;;;17.60;91.30;;;;;;6244571;23;20000;-78
2023/05/24 03:54:25;;;;;;;16.58;9.00;;;17.50;90.90;;;;;;6245362;23;20008;-77
2023/05/24 03:56:52;;;;;;;13.68;8.65;;;17.50;90.90;;;;;;6246024;23;20422;-78
2023/05/24 03:59:18;;;;;;;16.27;8.80;;;17.50;90.90;;;;;;6261156;22;20002;-78
2023/05/24 04:01:44;;;;;;;12.88;8.93;;;17.50;90.80;;;;;;6252427;23;20088;-79
2023/05/24 04:04:10;;;;;;;17.23;9.50;;;17.50;90.90;;;;;;6244493;23;20038;-79
2023/05/24 04:06:37;;;;;;;12.75;8.00;;;17.40;90.80;;;;;;6244997;23;20434;-79
2023/05/24 04:09:05;;;;;;;12.85;8.65;;;17.40;90.90;;;;;;6244670;23;20000;-72
2023/05/24 04:11:31;;;;;;;17.75;8.32;;;17.40;90.90;;;;;;6244681;23;20000;-81
2023/05/24 04:14:01;;;;;;;11.98;8.07;;;17.40;90.90;;;;;;6217397;23;20019;-79
2023/05/24 04:16:27;;;;;;;16.58;8.02;;;17.40;90.70;;;;;;6244375;23;20008;-79
2023/05/24 04:18:54;;;;;;;15.50;7.85;;;17.40;90.80;;;;;;6244250;23;20466;-78
2023/05/24 04:21:20;;;;;;;13.13;7.78;;;17.40;90.60;;;;;;6244696;23;20019;-78
2023/05/24 04:23:46;;;;;;;15.18;8.23;;;17.40;90.60;;;;;;6217415;23;20004;-77
2023/05/24 04:26:13;;;;;;;15.18;7.70;;;17.50;90.60;;;;;;6218727;23;20032;-78
2023/05/24 04:28:38;;;;;;;13.63;7.55;;;17.50;90.50;;;;;;6244857;23;20367;-78
2023/05/24 04:31:05;;;;;;;16.17;8.68;;;17.50;90.40;;;;;;6245014;23;20003;-79
2023/05/24 04:33:35;;;;;;;14.85;8.02;;;17.50;90.40;;;;;;6244952;23;20371;-78
2023/05/24 04:36:00;;;;;;;13.02;8.30;;;17.50;90.40;;;;;;6245175;23;20038;-79
2023/05/24 04:38:31;;;;;;;14.68;9.20;;;17.50;90.40;;;;;;6245164;23;20071;-79
2023/05/24 04:40:59;;;;;;;17.85;8.50;;;17.60;90.30;;;;;;6244210;23;20046;-78
2023/05/24 04:43:26;;;;;;;18.17;9.15;;;17.60;90.30;;;;;;6244483;23;20040;-79
2023/05/24 04:45:55;;;;;;;16.90;8.10;;;17.70;90.30;;;;;;6244824;23;20020;-80
2023/05/24 04:48:23;;;;;;;12.68;8.10;;;17.70;90.00;;;;;;6244518;23;20071;-80
2023/05/24 04:50:52;;;;;;;12.65;7.93;;;17.70;90.00;;;;;;6244502;23;20077;-79
2023/05/24 04:53:19;;;;;;;14.68;8.20;;;17.80;90.00;;;;;;6244608;23;20000;-79
2023/05/24 04:55:45;;;;;;;11.05;8.05;;;17.80;89.80;;;;;;6244905;23;20008;-78
2023/05/24 04:58:10;;;;;;;12.75;8.20;;;17.90;89.90;;;;;;6244610;23;20000;-77
2023/05/24 05:00:36;;;;;;;16.13;8.07;;;17.90;89.70;;;;;;6244861;23;20000;-79
2023/05/24 05:03:02;;;;;;;12.68;7.93;;;17.90;89.50;;;;;;6244902;23;20050;-78
2023/05/24 05:05:28;;;;;;;11.98;8.02;;;17.90;89.50;;;;;;6245519;23;20517;-81
2023/05/24 05:07:54;;;;;;;14.77;8.35;;;18.00;89.30;;;;;;6245342;23;20000;-78
2023/05/24 05:10:19;;;;;;;12.93;7.82;;;18.00;89.30;;;;;;6245052;23;20012;-80
2023/05/24 05:12:45;;;;;;;15.30;8.00;;;18.10;89.30;;;;;;6226884;23;20171;-80
2023/05/24 05:15:12;;;;;;;17.02;8.07;;;18.20;88.90;;;;;;6244319;23;20015;-80
2023/05/24 05:17:38;;;;;;;14.30;8.57;;;18.40;88.70;;;;;;6244458;23;20008;-79
2023/05/24 05:20:04;;;;;;;14.75;8.65;;;18.50;87.90;;;;;;6244856;23;20472;-80
2023/05/24 05:22:30;;;;;;;14.38;7.88;;;18.50;87.60;;;;;;6250400;23;20083;-78
2023/05/24 05:24:56;;;;;;;11.82;7.30;;;18.70;87.10;;;;;;6265281;23;20011;-78
2023/05/24 05:27:22;;;;;;;14.43;7.88;;;18.80;86.90;;;;;;6248392;23;20088;-80
2023/05/24 05:29:47;;;;;;;13.52;7.50;;;18.90;86.30;;;;;;6245022;23;20067;-78
2023/05/24 05:32:14;;;;;;;10.82;7.63;;;19.10;86.30;;;;;;6246348;23;20079;-79
2023/05/24 05:34:40;;;;;;;12.57;7.88;;;19.30;85.50;;;;;;6246536;23;20032;-75
2023/05/24 05:37:06;;;;;;;10.20;6.95;;;19.50;85.10;;;;;;6249143;23;20011;-78
2023/05/24 05:39:32;;;;;;;11.20;6.95;;;19.70;84.50;;;;;;6255360;23;20004;-80
2023/05/24 05:41:58;;;;;;;12.30;6.80;;;19.90;83.90;;;;;;6249754;23;20023;-81
2023/05/24 05:44:23;;;;;;;9.75;6.82;;;20.10;83.20;;;;;;6249677;23;20000;-81
2023/05/24 05:46:49;;;;;;;11.05;7.07;;;20.20;82.50;;;;;;6247603;23;20423;-80
2023/05/24 05:49:17;;;;;;;10.57;7.05;;;20.30;82.50;;;;;;6249798;23;20040;-78
2023/05/24 05:51:44;;;;;;;12.48;6.65;;;20.50;82.00;;;;;;6247670;23;20019;-80
2023/05/24 05:54:14;;;;;;;11.95;6.65;;;20.60;81.50;;;;;;6247093;23;20078;-81
2023/05/24 05:56:44;;;;;;;10.95;6.60;;;20.80;80.80;;;;;;6219012;23;20085;-80
2023/05/24 05:59:17;;;;;;;11.95;6.38;;;20.90;80.10;;;;;;6246332;23;20015;-78
2023/05/24 06:01:45;;;;;;;10.77;6.87;;;21.10;79.60;;;;;;6246537;23;20001;-78
2023/05/24 06:04:12;;;;;;;11.70;6.38;;;21.30;79.20;;;;;;6246441;23;20517;-79
2023/05/24 06:06:38;;;;;;;12.32;6.43;;;21.40;78.30;;;;;;6247647;23;20000;-77
2023/05/24 06:09:04;;;;;;;9.13;6.05;;;21.50;78.10;;;;;;6218482;23;20042;-79
2023/05/24 06:11:30;;;;;;;13.73;6.00;;;21.60;78.00;;;;;;6245509;23;20061;-79
2023/05/24 06:13:56;;;;;;;15.85;6.43;;;21.70;77.10;;;;;;6245947;23;20016;-80
2023/05/24 06:16:22;;;;;;;12.48;5.63;;;21.80;76.60;;;;;;6245488;23;20019;-80
2023/05/24 06:18:48;;;;;;;14.88;6.45;;;21.90;76.80;;;;;;6245501;23;20074;-78
2023/05/24 06:21:14;;;;;;;14.27;5.65;;;22.00;76.30;;;;;;6245370;23;20016;-77
2023/05/24 06:23:40;;;;;;;16.13;6.13;;;22.20;75.80;;;;;;6245265;23;20000;-77
2023/05/24 06:26:09;;;;;;;12.23;5.38;;;22.30;75.40;;;;;;6245178;23;20081;-76
2023/05/24 06:28:38;;;;;;;8.25;5.60;;;22.40;75.60;;;;;;6217908;23;20004;-77
2023/05/24 06:31:06;;;;;;;13.25;6.30;;;22.60;75.20;;;;;;6244882;23;20275;-78
2023/05/24 06:33:32;;;;;;;17.83;6.40;;;22.60;73.70;;;;;;6245317;23;20438;-78
2023/05/24 06:35:57;;;;;;;10.15;5.70;;;22.60;74.10;;;;;;6244757;23;20077;-79
2023/05/24 06:38:23;;;;;;;9.52;6.22;;;22.60;73.70;;;;;;6244943;23;20014;-76
2023/05/24 06:40:49;;;;;;;11.68;6.15;;;22.70;73.20;;;;;;6244661;23;20000;-78
2023/05/24 06:43:16;;;;;;;13.43;6.35;;;22.70;73.60;;;;;;6244231;23;20028;-77
2023/05/24 06:45:42;;;;;;;11.32;6.25;;;22.90;73.40;;;;;;6244767;23;20083;-77
2023/05/24 06:48:07;;;;;;;9.02;6.07;;;23.00;72.30;;;;;;6244692;23;20027;-76
2023/05/24 06:50:35;;;;;;;12.20;6.10;;;23.00;72.50;;;;;;6244844;23;20004;-77
2023/05/24 06:53:01;;;;;;;11.68;6.15;;;23.10;72.20;;;;;;6244385;23;20422;-78
2023/05/24 06:55:27;;;;;;;10.32;5.13;;;23.10;71.70;;;;;;6244315;23;20012;-77
2023/05/24 06:57:53;;;;;;;12.35;5.95;;;23.10;72.10;;;;;;6245243;23;20317;-77
2023/05/24 07:00:19;;;;;;;14.57;5.43;;;23.20;70.90;;;;;;6245721;23;20436;-78
2023/05/24 07:02:45;;;;;;;11.48;5.50;;;23.30;71.10;;;;;;6245689;23;20034;-78
2023/05/24 07:05:11;;;;;;;12.10;5.53;;;23.40;70.80;;;;;;6244849;23;20063;-77
2023/05/24 07:07:41;;;;;;;11.63;5.53;;;23.50;70.30;;;;;;6245493;23;20020;-77
2023/05/24 07:10:09;;;;;;;11.07;5.78;;;23.50;69.70;;;;;;6244605;23;20005;-77
2023/05/24 07:12:35;;;;;;;14.40;5.65;;;23.50;69.10;;;;;;6244516;23;20035;-78
2023/05/24 07:15:01;;;;;;;10.90;5.55;;;23.50;69.30;;;;;;6244565;23;20008;-77
2023/05/24 07:17:26;;;;;;;9.02;5.57;;;23.50;69.00;;;;;;6244390;23;20429;-76
2023/05/24 07:19:52;;;;;;;11.32;5.05;;;23.60;69.00;;;;;;6245677;23;19996;-78
2023/05/24 07:22:18;;;;;;;14.10;6.47;;;23.60;68.60;;;;;;6244086;23;20119;-78
2023/05/24 07:24:44;;;;;;;14.40;6.40;;;23.70;68.70;;;;;;6244203;23;20078;-78
2023/05/24 07:27:09;;;;;;;14.80;5.88;;;23.70;68.90;;;;;;6244121;23;20092;-80
2023/05/24 07:29:35;;;;;;;12.88;6.07;;;23.70;68.80;;;;;;6243914;23;20027;-79
2023/05/24 07:32:01;;;;;;;13.30;6.03;;;23.70;69.10;;;;;;6244343;23;19992;-79
2023/05/24 07:34:28;;;;;;;10.80;6.05;;;23.70;68.80;;;;;;6244189;23;20040;-78
2023/05/24 07:36:57;;;;;;;12.63;6.25;;;23.70;69.00;;;;;;6244587;23;20026;-79
2023/05/24 07:39:24;;;;;;;11.20;6.05;;;23.90;68.70;;;;;;6245060;23;20107;-77
2023/05/24 07:41:50;;;;;;;13.73;6.38;;;23.90;68.20;;;;;;6247588;23;20338;-79
2023/05/24 07:44:15;;;;;;;12.38;6.35;;;23.90;68.20;;;;;;6247004;23;19996;-77
2023/05/24 07:46:41;;;;;;;11.23;6.15;;;24.00;68.40;;;;;;6245582;23;20046;-77
2023/05/24 07:49:07;;;;;;;8.43;5.40;;;23.90;68.20;;;;;;6243990;23;20146;-78
2023/05/24 07:51:33;;;;;;;13.88;5.97;;;24.00;68.20;;;;;;6216602;23;20015;-78
2023/05/24 07:53:59;;;;;;;10.48;7.35;;;24.10;68.40;;;;;;6243626;23;20311;-79
2023/05/24 07:56:25;;;;;;;9.93;6.78;;;24.10;68.10;;;;;;6243656;23;20299;-77
2023/05/24 07:58:51;;;;;;;12.02;7.32;;;24.20;68.20;;;;;;6243919;23;20478;-78
2023/05/24 08:01:17;;;;;;;10.30;6.00;;;24.10;68.90;;;;;;6243550;23;20469;-79
2023/05/24 08:03:44;;;;;;;20.10;6.82;;;24.20;68.50;;;;;;6244142;23;20023;-79
2023/05/24 08:06:10;;;;;;;13.50;7.05;;;24.20;68.40;;;;;;6244265;23;20096;-78
2023/05/24 08:08:37;;;;;;;14.40;7.07;;;24.20;68.30;;;;;;6244234;23;20445;-79
2023/05/24 08:11:03;;;;;;;10.90;6.30;;;24.20;68.40;;;;;;6244565;23;20004;-78
2023/05/24 08:13:28;;;;;;;11.73;6.45;;;24.10;68.00;;;;;;6217583;23;20027;-78
2023/05/24 08:15:54;;;;;;;9.38;6.65;;;24.10;68.00;;;;;;6244025;23;20342;-78
2023/05/24 08:18:20;;;;;;;12.65;6.50;;;24.00;68.00;;;;;;6243929;23;20028;-78
2023/05/24 08:20:46;;;;;;;12.85;6.22;;;24.00;68.20;;;;;;6243842;23;20004;-78
2023/05/24 08:23:11;;;;;;;9.57;5.85;;;24.00;68.20;;;;;;6244202;23;20000;-78
2023/05/24 08:25:38;;;;;;;11.90;6.57;;;24.00;68.30;;;;;;6244395;23;20073;-79
2023/05/24 08:28:04;;;;;;;12.10;5.65;;;24.00;68.50;;;;;;6244276;23;20008;-78
2023/05/24 08:30:31;;;;;;;12.00;5.57;;;24.00;68.50;;;;;;6244502;23;20027;-78
2023/05/24 08:32:57;;;;;;;8.18;5.68;;;24.00;68.50;;;;;;6244227;23;20039;-78
2023/05/24 08:35:23;;;;;;;11.32;5.90;;;24.00;68.10;;;;;;6244013;23;20087;-78
2023/05/24 08:37:49;;;;;;;18.60;7.13;;;23.90;68.00;;;;;;6244301;23;20004;-78
2023/05/24 08:40:15;;;;;;;17.10;6.63;;;23.90;68.00;;;;;;6243982;23;20358;-80
2023/05/24 08:42:41;;;;;;;14.25;5.85;;;23.90;68.00;;;;;;6244135;23;20003;-78
2023/05/24 08:45:10;;;;;;;11.73;6.20;;;23.90;68.20;;;;;;6244258;23;19997;-78
2023/05/24 08:47:37;;;;;;;12.23;5.65;;;24.00;68.00;;;;;;6244559;23;20015;-78
2023/05/24 08:50:05;;;;;;;9.70;6.15;;;24.10;67.90;;;;;;6245556;23;20415;-77
2023/05/24 08:52:31;;;;;;;10.43;5.55;;;24.10;67.40;;;;;;6244312;23;20018;-78
2023/05/24 08:54:58;;;;;;;9.77;5.25;;;24.10;67.40;;;;;;6243704;23;20026;-78
2023/05/24 08:57:30;;;;;;;11.30;5.40;;;24.20;67.20;;;;;;6244182;23;20012;-78
2023/05/24 08:59:56;;;;;;;10.07;5.00;;;24.20;66.40;;;;;;6246555;23;20008;-78
2023/05/24 09:02:22;;;;;;;7.97;4.78;;;24.30;66.80;;;;;;6247802;23;20012;-77
2023/05/24 09:04:50;;;;;;;10.25;4.88;;;24.30;67.00;;;;;;6244943;23;20107;-79
2023/05/24 09:07:18;;;;;;;9.95;4.97;;;24.40;66.70;;;;;;6246662;23;20012;-77
2023/05/24 09:09:57;;;;;;;10.55;5.47;;;24.40;66.10;;;;;;6219057;23;20385;-79
2023/05/24 09:12:25;;;;;;;11.77;5.57;;;24.40;65.30;;;;;;6246123;23;20101;-78
2023/05/24 09:14:51;;;;;;;10.95;4.80;;;24.50;66.00;;;;;;6245811;23;20079;-76
2023/05/24 09:17:19;;;;;;;11.25;6.05;;;24.50;65.70;;;;;;6246737;23;20068;-79
2023/05/24 09:19:45;;;;;;;12.93;5.20;;;24.60;65.70;;;;;;6246088;23;20430;-77
2023/05/24 09:22:18;;;;;;;12.65;5.72;;;24.70;65.50;;;;;;6245646;23;20019;-80
2023/05/24 09:24:47;;;;;;;6.93;4.95;;;24.80;65.00;;;;;;6245803;23;20375;-78
2023/05/24 09:27:15;;;;;;;11.05;4.53;;;24.80;63.90;;;;;;6218967;23;20061;-76
2023/05/24 09:29:42;;;;;;;9.60;5.10;;;24.70;63.00;;;;;;6248057;23;20000;-79
2023/05/24 09:32:08;;;;;;;10.02;5.05;;;24.70;63.20;;;;;;6248755;23;20004;-78
2023/05/24 09:34:41;;;;;;;12.65;5.03;;;24.70;62.40;;;;;;6248020;23;20075;-81
2023/05/24 09:37:15;;;;;;;10.50;4.82;;;24.70;61.90;;;;;;6248039;23;20094;-79
2023/05/24 09:39:42;;;;;;;9.15;5.07;;;24.70;61.60;;;;;;6247115;23;20004;-79
2023/05/24 09:42:13;;;;;;;14.45;5.55;;;24.60;61.70;;;;;;6246432;23;20422;-80
2023/05/24 09:44:39;;;;;;;9.35;5.20;;;24.70;62.20;;;;;;6219076;23;20043;-78
2023/05/24 09:47:04;;;;;;;8.23;5.10;;;24.70;62.00;;;;;;6245954;23;20434;-80
2023/05/24 09:49:31;;;;;;;8.45;5.63;;;24.70;62.10;;;;;;6246130;23;20078;-78
2023/05/24 09:51:57;;;;;;;11.88;5.07;;;24.90;62.70;;;;;;6246268;23;20165;-78
2023/05/24 09:54:26;;;;;;;7.55;5.13;;;25.00;62.40;;;;;;6218920;23;20402;-77
2023/05/24 09:56:52;;;;;;;10.30;5.60;;;25.10;62.40;;;;;;6246209;23;20264;-79
2023/05/24 09:59:18;;;;;;;10.50;5.30;;;25.10;61.80;;;;;;6246971;23;20054;-78
2023/05/24 10:01:45;;;;;;;10.85;5.68;;;25.00;62.20;;;;;;6246391;23;20422;-80
2023/05/24 10:04:12;;;;;;;10.00;5.57;;;25.10;62.50;;;;;;6245570;23;20331;-78
2023/05/24 10:06:41;;;;;;;10.48;5.95;;;25.10;62.50;;;;;;6218445;23;20012;-79
2023/05/24 10:09:08;;;;;;;11.25;5.45;;;25.20;62.20;;;;;;6247841;23;20000;-79
2023/05/24 10:11:37;;;;;;;15.40;5.45;;;25.20;62.30;;;;;;6245773;23;20000;-79
2023/05/24 10:14:08;;;;;;;11.68;5.70;;;25.20;62.10;;;;;;6245795;23;20054;-80
2023/05/24 10:16:37;;;;;;;14.52;6.28;;;25.30;62.40;;;;;;6245218;23;20018;-79
2023/05/24 10:19:03;;;;;;;10.45;6.45;;;25.30;62.10;;;;;;6245508;23;20000;-80
2023/05/24 10:21:31;;;;;;;13.55;6.07;;;25.40;62.00;;;;;;6246148;23;20004;-79
2023/05/24 10:24:01;;;;;;;12.88;6.35;;;25.50;62.00;;;;;;6246082;23;20019;-80
2023/05/24 10:26:30;;;;;;;11.75;5.15;;;25.70;61.70;;;;;;6245414;23;20008;-80
2023/05/24 10:29:03;;;;;;;9.93;4.65;;;25.70;61.40;;;;;;6245371;23;20011;-80
2023/05/24 10:31:35;;;;;;;8.18;4.85;;;25.70;60.40;;;;;;6245582;23;20388;-78
2023/05/24 10:34:04;;;;;;;10.23;5.10;;;25.70;60.10;;;;;;6245752;23;20051;-78
2023/05/24 10:36:31;;;;;;;9.77;5.07;;;25.70;59.80;;;;;;6245291;23;20012;-80
2023/05/24 10:38:57;;;;;;;10.80;5.30;;;25.80;59.90;;;;;;6245763;23;20320;-78
2023/05/24 10:41:26;;;;;;;8.35;4.90;;;25.90;59.50;;;;;;6245310;23;20000;-79
2023/05/24 10:43:52;;;;;;;11.15;5.15;;;26.00;59.30;;;;;;6244693;23;20004;-80
2023/05/24 10:46:21;;;;;;;9.23;5.40;;;26.10;58.70;;;;;;6244871;23;20000;-81
2023/05/24 10:49:07;;;;;;;10.02;7.40;;;26.10;58.20;;;;;;6245558;23;20008;-79
2023/05/24 10:51:38;;;;;;;14.52;6.50;;;26.10;58.50;;;;;;6245236;23;20327;-79
2023/05/24 10:54:18;;;;;;;11.35;5.35;;;26.10;57.90;;;;;;6247724;23;20008;-80
2023/05/24 10:56:49;;;;;;;11.45;5.07;;;26.10;56.90;;;;;;6244981;23;20038;-81
2023/05/24 10:59:28;;;;;;;11.45;5.03;;;26.10;56.70;;;;;;6244471;23;20334;-79
2023/05/24 11:01:59;;;;;;;12.35;5.45;;;26.10;55.90;;;;;;6217461;23;20066;-79
2023/05/24 11:04:25;;;;;;;13.27;5.82;;;26.10;56.20;;;;;;6244094;23;20020;-78
2023/05/24 11:07:04;;;;;;;11.20;5.47;;;26.20;56.60;;;;;;6244973;23;20000;-78
2023/05/24 11:09:32;;;;;;;17.85;5.82;;;26.30;56.90;;;;;;6244870;23;20004;-78
2023/05/24 11:12:06;;;;;;;9.18;4.93;;;26.40;57.10;;;;;;6245163;23;20004;-80
2023/05/24 11:14:41;;;;;;;9.52;5.57;;;26.50;56.60;;;;;;6244256;23;20015;-80
2023/05/24 11:17:07;;;;;;;10.57;5.10;;;26.50;56.40;;;;;;6244689;23;20023;-76
2023/05/24 11:19:35;;;;;;;11.98;5.75;;;26.60;57.00;;;;;;6245419;23;20349;-79
2023/05/24 11:22:06;;;;;;;10.70;6.15;;;26.60;57.10;;;;;;6245872;23;20445;-80
2023/05/24 11:24:33;;;;;;;11.55;5.30;;;26.70;56.80;;;;;;6246092;23;20000;-80
2023/05/24 11:27:01;;;;;;;13.10;5.70;;;26.80;56.70;;;;;;6218784;23;20004;-78
2023/05/24 11:29:30;;;;;;;11.70;6.32;;;26.80;56.50;;;;;;6250670;23;20016;-79
2023/05/24 11:32:03;;;;;;;8.73;6.28;;;26.80;56.10;;;;;;6245452;23;20027;-79
2023/05/24 11:34:29;;;;;;;10.55;5.68;;;26.90;55.70;;;;;;6246470;23;20133;-80
2023/05/24 11:36:55;;;;;;;9.43;5.60;;;26.90;55.70;;;;;;6246345;23;20012;-77
2023/05/24 11:39:22;;;;;;;10.90;5.25;;;27.00;55.70;;;;;;6220374;23;20481;-79
2023/05/24 11:41:48;;;;;;;10.57;5.28;;;27.10;55.40;;;;;;6247459;23;20000;-79
2023/05/24 11:44:18;;;;;;;9.40;5.65;;;27.20;55.40;;;;;;6245930;23;20039;-78
2023/05/24 11:46:44;;;;;;;10.82;6.10;;;27.30;54.90;;;;;;6245304;23;20020;-79
2023/05/24 11:49:15;;;;;;;11.43;5.78;;;27.30;54.60;;;;;;6218385;23;20409;-78
2023/05/24 11:51:41;;;;;;;11.05;5.70;;;27.30;54.90;;;;;;6245055;23;20322;-79
2023/05/24 11:54:07;;;;;;;9.88;6.07;;;27.40;54.50;;;;;;6193048;23;20009;-79
2023/05/24 11:56:33;;;;;;;12.77;6.10;;;27.50;55.30;;;;;;6245125;23;20020;-79
2023/05/24 11:59:16;;;;;;;13.02;5.32;;;27.60;56.10;;;;;;6247289;23;20437;-80
2023/05/24 12:01:43;;;;;;;14.00;6.47;;;27.70;55.70;;;;;;6246532;23;20019;-79
2023/05/24 12:04:09;;;;;;;12.77;5.75;;;27.80;55.90;;;;;;6245777;23;20043;-79
2023/05/24 12:06:40;;;;;;;13.95;6.32;;;27.90;55.80;;;;;;6245782;23;20016;-82
2023/05/24 12:09:08;;;;;;;12.23;5.78;;;28.00;55.90;;;;;;6245774;23;20131;-79
2023/05/24 12:11:38;;;;;;;12.13;6.25;;;28.10;56.90;;;;;;6246025;23;20012;-79
2023/05/24 12:14:04;;;;;;;10.52;5.85;;;28.10;57.20;;;;;;6245662;23;20004;-78
2023/05/24 12:16:31;;;;;;;13.77;6.40;;;28.10;57.30;;;;;;6245773;23;20012;-79
2023/05/24 12:18:58;;;;;;;10.27;5.97;;;28.20;57.10;;;;;;6245444;23;20047;-78
2023/05/24 12:21:24;;;;;;;15.52;6.60;;;28.20;57.20;;;;;;6246204;23;20030;-80
2023/05/24 12:23:50;;;;;;;11.48;7.28;;;28.30;57.30;;;;;;6245976;23;20000;-80
2023/05/24 12:26:21;;;;;;;20.00;6.97;;;28.40;57.30;;;;;;6247491;23;19996;-79
2023/05/24 12:28:53;;;;;;;14.50;6.15;;;28.40;57.60;;;;;;6247048;23;20067;-78
2023/05/24 12:31:20;;;;;;;11.90;6.13;;;28.40;57.70;;;;;;6220581;23;20130;-80
2023/05/24 12:33:46;;;;;;;11.75;6.68;;;28.40;57.20;;;;;;6250945;23;20015;-79
2023/05/24 12:36:12;;;;;;;15.45;6.38;;;28.40;57.10;;;;;;6254273;23;20031;-78
2023/05/24 12:38:38;;;;;;;10.07;5.82;;;28.40;57.20;;;;;;6257590;23;19996;-79
2023/05/24 12:41:05;;;;;;;11.85;6.05;;;28.50;57.00;;;;;;6259896;23;20016;-79